createdAt,value
2022-09-20T00:01:32.699Z,12.92
2022-09-20T00:04:02.355Z,12.61
2022-09-20T00:06:31.536Z,12.55
2022-09-20T00:08:59.741Z,12.46
2022-09-20T00:11:29.211Z,12.04
2022-09-20T00:13:57.648Z,12.49
2022-09-20T00:16:30.237Z,12.46
2022-09-20T00:19:04.424Z,12.10
2022-09-20T00:21:32.996Z,12.46
2022-09-20T00:24:00.120Z,12.59
2022-09-20T00:26:27.712Z,12.66
2022-09-20T00:28:55.286Z,12.67
2022-09-20T00:31:23.204Z,12.77
2022-09-20T00:34:36.559Z,12.73
2022-09-20T00:37:15.369Z,12.75
2022-09-20T00:39:41.936Z,12.75
2022-09-20T00:42:14.179Z,12.63
2022-09-20T00:44:42.781Z,12.66
2022-09-20T00:47:41.985Z,12.66
2022-09-20T00:50:38.184Z,12.59
2022-09-20T00:53:36.983Z,12.65
2022-09-20T00:56:11.472Z,12.60
2022-09-20T00:58:49.755Z,12.75
2022-09-20T01:01:17.224Z,12.53
2022-09-20T01:03:44.071Z,12.28
2022-09-20T01:06:15.559Z,12.64
2022-09-20T01:12:22.759Z,12.77
2022-09-20T01:14:51.254Z,12.81
2022-09-20T01:17:19.870Z,12.87
2022-09-20T01:20:12.578Z,12.61
2022-09-20T01:22:51.709Z,12.38
2022-09-20T01:25:51.313Z,12.62
2022-09-20T01:28:18.096Z,12.81
2022-09-20T01:31:03.640Z,12.84
2022-09-20T01:33:53.729Z,12.82
2022-09-20T01:36:57.891Z,12.85
2022-09-20T01:39:29.439Z,12.73
2022-09-20T01:42:14.429Z,12.79
2022-09-20T01:45:00.148Z,12.68
2022-09-20T01:47:48.542Z,12.62
2022-09-20T01:50:35.041Z,12.77
2022-09-20T01:53:04.466Z,12.84
2022-09-20T01:55:49.449Z,12.78
2022-09-20T01:58:46.945Z,12.79
2022-09-20T02:01:38.756Z,12.79
2022-09-20T02:04:14.265Z,12.88
2022-09-20T02:06:53.943Z,12.85
2022-09-20T02:09:29.530Z,12.81
2022-09-20T02:12:17.404Z,12.75
2022-09-20T02:15:10.171Z,12.71
2022-09-20T02:18:26.214Z,12.69
2022-09-20T02:21:35.031Z,12.58
2022-09-20T02:24:17.452Z,12.53
2022-09-20T02:26:58.807Z,12.45
2022-09-20T02:29:52.907Z,12.40
2022-09-20T02:32:54.745Z,12.27
2022-09-20T02:36:01.928Z,12.35
2022-09-20T02:38:59.105Z,12.29
2022-09-20T02:41:28.320Z,12.35
2022-09-20T02:44:04.172Z,12.37
2022-09-20T02:46:41.197Z,12.34
2022-09-20T02:49:47.528Z,12.32
2022-09-20T02:53:01.215Z,12.17
2022-09-20T02:55:52.656Z,12.04
2022-09-20T02:58:40.261Z,11.96
2022-09-20T03:01:25.077Z,11.97
2022-09-20T03:04:00.637Z,11.99
2022-09-20T03:06:39.376Z,11.82
2022-09-20T03:09:05.832Z,12.05
2022-09-20T03:12:09.563Z,11.97
2022-09-20T03:14:37.589Z,12.13
2022-09-20T03:17:27.381Z,12.12
2022-09-20T03:20:29.036Z,12.21
2022-09-20T03:23:19.993Z,12.28
2022-09-20T03:26:50.281Z,12.24
2022-09-20T03:29:43.009Z,12.06
2022-09-20T03:32:28.319Z,12.10
2022-09-20T03:34:57.936Z,12.10
2022-09-20T03:37:45.240Z,12.03
2022-09-20T03:40:24.701Z,11.94
2022-09-20T03:42:58.575Z,11.88
2022-09-20T03:45:56.211Z,11.86
2022-09-20T03:48:51.996Z,11.88
2022-09-20T03:51:34.467Z,11.77
2022-09-20T03:54:38.773Z,11.83
2022-09-20T03:57:19.421Z,11.65
2022-09-20T04:00:35.842Z,11.66
2022-09-20T04:03:43.107Z,11.72
2022-09-20T04:06:31.649Z,11.66
2022-09-20T04:09:47.671Z,11.66
2022-09-20T04:12:30.840Z,11.66
2022-09-20T04:14:57.378Z,11.66
2022-09-20T04:17:49.243Z,11.69
2022-09-20T04:20:55.984Z,11.79
2022-09-20T04:23:33.573Z,11.88
2022-09-20T04:26:02.309Z,11.89
2022-09-20T04:28:56.971Z,11.88
2022-09-20T04:31:37.378Z,11.78
2022-09-20T04:37:39.717Z,11.65
2022-09-20T04:40:31.045Z,11.57
2022-09-20T04:43:17.381Z,11.53
2022-09-20T04:46:13.730Z,11.41
2022-09-20T04:48:58.754Z,11.53
2022-09-20T04:52:04.008Z,11.56
2022-09-20T04:54:53.176Z,11.33
2022-09-20T04:57:34.429Z,11.19
2022-09-20T05:00:16.950Z,11.14
2022-09-20T05:03:02.120Z,11.24
2022-09-20T05:05:49.715Z,11.11
2022-09-20T05:08:58.803Z,11.26
2022-09-20T05:12:08.743Z,11.43
2022-09-20T05:15:13.154Z,11.58
2022-09-20T05:17:45.831Z,11.58
2022-09-20T05:20:27.691Z,11.70
2022-09-20T05:23:12.934Z,11.78
2022-09-20T05:25:45.043Z,11.70
2022-09-20T05:28:30.301Z,11.89
2022-09-20T05:31:26.143Z,11.79
2022-09-20T05:34:02.905Z,11.81
2022-09-20T05:36:50.642Z,11.86
2022-09-20T05:39:32.507Z,11.96
2022-09-20T05:42:14.572Z,12.05
2022-09-20T05:45:23.469Z,12.20
2022-09-20T05:48:24.649Z,12.03
2022-09-20T05:51:06.515Z,12.24
2022-09-20T05:53:41.810Z,12.22
2022-09-20T05:56:34.892Z,12.32
2022-09-20T05:59:21.617Z,12.37
2022-09-20T06:02:27.357Z,12.62
2022-09-20T06:05:12.623Z,12.93
2022-09-20T06:07:54.104Z,12.81
2022-09-20T06:10:26.112Z,12.93
2022-09-20T06:13:09.737Z,13.02
2022-09-20T06:15:44.891Z,13.04
2022-09-20T06:18:52.790Z,13.20
2022-09-20T06:22:03.944Z,13.21
2022-09-20T06:24:47.586Z,13.26
2022-09-20T06:27:32.573Z,13.42
2022-09-20T06:30:05.987Z,13.37
2022-09-20T06:32:34.731Z,13.45
2022-09-20T06:35:02.920Z,13.53
2022-09-20T06:38:09.652Z,13.22
2022-09-20T06:41:04.244Z,13.48
2022-09-20T06:43:31.619Z,13.49
2022-09-20T06:45:58.794Z,13.60
2022-09-20T06:48:25.421Z,13.63
2022-09-20T06:50:52.627Z,13.50
2022-09-20T06:53:26.788Z,13.42
2022-09-20T06:55:53.589Z,13.44
2022-09-20T06:58:20.116Z,13.30
2022-09-20T07:00:46.934Z,13.21
2022-09-20T07:03:13.612Z,13.30
2022-09-20T07:05:40.205Z,13.77
2022-09-20T07:08:06.843Z,13.98
2022-09-20T07:10:33.780Z,14.08
2022-09-20T07:13:02.000Z,13.95
2022-09-20T07:15:30.954Z,14.28
2022-09-20T07:17:57.495Z,14.38
2022-09-20T07:20:24.084Z,14.27
2022-09-20T07:22:51.638Z,14.41
2022-09-20T07:25:18.452Z,14.60
2022-09-20T07:27:46.478Z,14.76
2022-09-20T07:30:17.431Z,14.09
2022-09-20T07:32:44.077Z,14.29
2022-09-20T07:35:11.960Z,14.08
2022-09-20T07:37:41.404Z,14.19
2022-09-20T07:40:10.535Z,14.37
2022-09-20T07:42:37.308Z,14.69
2022-09-20T07:45:04.744Z,14.75
2022-09-20T07:47:35.463Z,14.83
2022-09-20T07:50:02.865Z,15.28
2022-09-20T07:52:35.609Z,15.51
2022-09-20T07:55:02.186Z,15.47
2022-09-20T07:57:28.756Z,15.56
2022-09-20T07:59:55.294Z,15.22
2022-09-20T08:02:21.842Z,15.22
2022-09-20T08:04:49.910Z,15.23
2022-09-20T08:07:47.672Z,15.58
2022-09-20T08:10:36.018Z,15.48
2022-09-20T08:16:07.556Z,15.24
2022-09-20T08:18:35.176Z,15.00
2022-09-20T08:21:06.712Z,14.85
2022-09-20T08:23:41.000Z,14.96
2022-09-20T08:26:26.954Z,15.12
2022-09-20T08:28:58.958Z,15.17
2022-09-20T08:31:34.520Z,15.01
2022-09-20T08:34:03.769Z,15.13
2022-09-20T08:36:36.056Z,15.17
2022-09-20T08:42:43.758Z,15.57
2022-09-20T08:45:41.963Z,15.55
2022-09-20T08:48:16.380Z,15.51
2022-09-20T08:50:43.828Z,15.39
2022-09-20T08:53:14.859Z,15.85
2022-09-20T08:55:42.931Z,15.34
2022-09-20T08:58:12.035Z,15.27
2022-09-20T09:00:47.002Z,15.20
2022-09-20T09:03:16.946Z,15.15
2022-09-20T09:05:47.775Z,15.16
2022-09-20T09:08:18.709Z,15.25
2022-09-20T09:10:54.206Z,15.32
2022-09-20T09:13:54.549Z,15.03
2022-09-20T09:16:35.245Z,15.48
2022-09-20T09:20:00.347Z,15.45
2022-09-20T09:22:42.983Z,15.59
2022-09-20T09:25:18.567Z,15.75
2022-09-20T09:27:57.624Z,15.24
2022-09-20T09:30:31.713Z,15.87
2022-09-20T09:33:19.995Z,16.02
2022-09-20T09:36:25.708Z,15.88
2022-09-20T09:39:29.148Z,15.85
2022-09-20T09:41:57.312Z,16.06
2022-09-20T09:44:35.507Z,16.34
2022-09-20T09:47:02.343Z,16.63
2022-09-20T09:49:36.594Z,16.43
2022-09-20T09:52:27.915Z,16.41
2022-09-20T09:55:02.082Z,16.23
2022-09-20T09:58:14.560Z,16.47
2022-09-20T10:00:46.601Z,16.58
2022-09-20T10:03:25.438Z,16.49
2022-09-20T10:06:16.713Z,16.81
2022-09-20T10:09:04.428Z,16.87
2022-09-20T10:11:49.713Z,17.06
2022-09-20T10:14:34.509Z,16.80
2022-09-20T10:17:21.271Z,16.68
2022-09-20T10:20:10.724Z,16.75
2022-09-20T10:26:08.883Z,16.72
2022-09-20T10:28:53.262Z,16.90
2022-09-20T10:31:26.112Z,16.54
2022-09-20T10:34:11.316Z,16.76
2022-09-20T10:37:06.746Z,16.57
2022-09-20T10:39:36.250Z,16.53
2022-09-20T10:42:46.626Z,16.66
2022-09-20T10:45:59.227Z,16.60
2022-09-20T10:48:21.206Z,16.61
2022-09-20T10:51:00.286Z,16.78
2022-09-20T10:54:06.175Z,17.11
2022-09-20T10:56:39.544Z,17.03
2022-09-20T10:59:12.427Z,17.10
2022-09-20T11:01:38.873Z,17.28
2022-09-20T11:04:38.766Z,17.28
2022-09-20T11:07:17.225Z,17.37
2022-09-20T11:09:51.200Z,16.86
2022-09-20T11:12:32.367Z,17.09
2022-09-20T11:15:05.191Z,17.57
2022-09-20T11:17:41.462Z,17.36
2022-09-20T11:20:20.660Z,17.42
2022-09-20T11:22:52.525Z,17.25
2022-09-20T11:25:29.341Z,17.19
2022-09-20T11:28:05.520Z,17.19
2022-09-20T11:30:38.596Z,17.13
2022-09-20T11:33:22.470Z,17.13
2022-09-20T11:35:56.174Z,17.30
2022-09-20T11:38:25.444Z,17.36
2022-09-20T11:41:33.105Z,17.33
2022-09-20T11:44:07.823Z,17.47
2022-09-20T11:46:52.360Z,17.44
2022-09-20T11:49:59.355Z,17.33
2022-09-20T11:53:03.596Z,17.47
2022-09-20T11:59:23.073Z,17.31
2022-09-20T12:01:56.797Z,17.30
2022-09-20T12:04:33.248Z,17.70
2022-09-20T12:07:18.423Z,17.32
2022-09-20T12:09:58.337Z,17.42
2022-09-20T12:12:31.374Z,17.16
2022-09-20T12:15:01.522Z,17.32
2022-09-20T12:17:46.236Z,17.47
2022-09-20T12:20:42.558Z,17.39
2022-09-20T12:23:43.245Z,17.23
2022-09-20T12:26:15.636Z,17.25
2022-09-20T12:28:50.816Z,17.42
2022-09-20T12:31:26.022Z,17.38
2022-09-20T12:34:33.603Z,17.14
2022-09-20T12:37:00.154Z,17.09
2022-09-20T12:39:37.738Z,17.13
2022-09-20T12:42:28.223Z,17.09
2022-09-20T12:45:32.151Z,17.40
2022-09-20T12:47:58.947Z,17.33
2022-09-20T12:50:44.060Z,17.37
2022-09-20T12:53:16.713Z,17.55
2022-09-20T12:56:12.485Z,17.53
2022-09-20T12:58:45.294Z,17.57
2022-09-20T13:01:56.484Z,17.57
2022-09-20T13:04:51.292Z,16.93
2022-09-20T13:07:33.407Z,17.10
2022-09-20T13:10:15.119Z,17.28
2022-09-20T13:12:43.398Z,17.36
2022-09-20T13:15:18.675Z,17.08
2022-09-20T13:17:52.000Z,17.51
2022-09-20T13:20:23.968Z,17.11
2022-09-20T13:22:56.015Z,17.44
2022-09-20T13:25:25.324Z,17.60
2022-09-20T13:28:09.714Z,17.28
2022-09-20T13:30:37.087Z,17.28
2022-09-20T13:33:25.369Z,17.09
2022-09-20T13:35:58.113Z,17.17
2022-09-20T13:38:30.081Z,17.26
2022-09-20T13:41:06.342Z,17.10
2022-09-20T13:43:36.628Z,17.37
2022-09-20T13:46:12.295Z,17.54
2022-09-20T13:48:40.338Z,17.51
2022-09-20T13:51:23.506Z,17.49
2022-09-20T13:53:50.206Z,17.32
2022-09-20T13:56:18.944Z,17.41
2022-09-20T13:58:45.821Z,17.37
2022-09-20T14:01:30.487Z,17.43
2022-09-20T14:04:05.031Z,17.11
2022-09-20T14:06:32.352Z,16.91
2022-09-20T14:09:02.611Z,16.92
2022-09-20T14:11:31.239Z,16.80
2022-09-20T14:14:02.933Z,16.97
2022-09-20T14:16:32.861Z,16.78
2022-09-20T14:19:00.813Z,16.80
2022-09-20T14:21:31.744Z,16.54
2022-09-20T14:24:05.686Z,16.49
2022-09-20T14:26:36.331Z,16.80
2022-09-20T14:29:31.765Z,16.94
2022-09-20T14:32:00.791Z,17.08
2022-09-20T14:34:27.860Z,17.06
2022-09-20T14:37:05.372Z,16.94
2022-09-20T14:39:33.487Z,16.27
2022-09-20T14:42:00.215Z,16.55
2022-09-20T14:44:33.677Z,16.54
2022-09-20T14:47:00.402Z,16.75
2022-09-20T14:49:26.917Z,16.91
2022-09-20T14:51:54.554Z,16.61
2022-09-20T14:54:41.306Z,17.00
2022-09-20T14:57:08.883Z,17.08
2022-09-20T14:59:39.941Z,16.84
2022-09-20T15:02:16.052Z,16.65
2022-09-20T15:04:54.360Z,16.58
2022-09-20T15:07:21.248Z,16.76
2022-09-20T15:09:47.950Z,17.09
2022-09-20T15:12:17.662Z,17.13
2022-09-20T15:14:44.619Z,17.21
2022-09-20T15:17:18.029Z,16.89
2022-09-20T15:19:45.938Z,16.91
2022-09-20T15:22:12.804Z,16.93
2022-09-20T15:24:39.986Z,17.04
2022-09-20T15:27:07.052Z,17.14
2022-09-20T15:29:33.956Z,16.97
2022-09-20T15:32:00.629Z,16.76
2022-09-20T15:34:27.255Z,16.86
2022-09-20T15:36:54.715Z,16.97
2022-09-20T15:39:22.376Z,16.95
2022-09-20T15:41:52.617Z,16.80
2022-09-20T15:44:19.301Z,16.79
2022-09-20T15:46:46.611Z,16.79
2022-09-20T15:49:13.231Z,16.59
2022-09-20T15:51:39.965Z,16.22
2022-09-20T15:54:07.746Z,16.18
2022-09-20T15:56:37.117Z,16.51
2022-09-20T15:59:06.211Z,16.52
2022-09-20T16:01:39.772Z,16.58
2022-09-20T16:04:12.430Z,16.70
2022-09-20T16:06:40.922Z,16.72
2022-09-20T16:09:08.419Z,16.67
2022-09-20T16:11:35.356Z,16.46
2022-09-20T16:14:02.737Z,16.51
2022-09-20T16:16:31.903Z,16.45
2022-09-20T16:19:19.890Z,16.44
2022-09-20T16:21:52.508Z,16.28
2022-09-20T16:24:31.828Z,16.25
2022-09-20T16:26:59.281Z,16.34
2022-09-20T16:29:26.110Z,16.16
2022-09-20T16:31:54.542Z,15.95
2022-09-20T16:34:24.280Z,16.09
2022-09-20T16:36:53.852Z,15.98
2022-09-20T16:39:26.222Z,15.92
2022-09-20T16:41:53.084Z,15.85
2022-09-20T16:44:19.680Z,15.76
2022-09-20T16:46:47.265Z,15.60
2022-09-20T16:49:14.186Z,15.69
2022-09-20T16:51:42.942Z,15.65
2022-09-20T16:54:12.601Z,15.74
2022-09-20T16:56:49.176Z,15.60
2022-09-20T16:59:18.639Z,15.67
2022-09-20T17:01:45.537Z,15.56
2022-09-20T17:04:14.386Z,15.67
2022-09-20T17:06:43.413Z,15.41
2022-09-20T17:09:11.137Z,15.59
2022-09-20T17:11:40.628Z,15.55
2022-09-20T17:14:09.162Z,15.52
2022-09-20T17:16:38.253Z,15.42
2022-09-20T17:19:07.445Z,15.50
2022-09-20T17:21:36.055Z,15.48
2022-09-20T17:24:04.165Z,15.43
2022-09-20T17:26:36.696Z,15.18
2022-09-20T17:29:06.637Z,14.96
2022-09-20T17:31:38.226Z,14.96
2022-09-20T17:34:07.715Z,15.09
2022-09-20T17:36:39.654Z,15.20
2022-09-20T17:39:10.885Z,15.20
2022-09-20T17:41:38.236Z,15.15
2022-09-20T17:44:09.848Z,15.10
2022-09-20T17:46:38.467Z,15.10
2022-09-20T17:49:08.707Z,15.02
2022-09-20T17:51:40.309Z,15.01
2022-09-20T17:54:08.583Z,14.82
2022-09-20T17:56:37.523Z,14.58
2022-09-20T17:59:05.927Z,14.30
2022-09-20T18:01:34.534Z,14.41
2022-09-20T18:04:02.389Z,14.50
2022-09-20T18:06:50.064Z,14.58
2022-09-20T18:09:18.925Z,14.30
2022-09-20T18:11:53.220Z,14.18
2022-09-20T18:14:23.271Z,14.41
2022-09-20T18:16:55.476Z,14.24
2022-09-20T18:19:22.901Z,14.15
2022-09-20T18:21:50.035Z,14.37
2022-09-20T18:24:16.756Z,14.34
2022-09-20T18:26:44.516Z,14.50
2022-09-20T18:29:17.980Z,14.43
2022-09-20T18:31:56.804Z,14.58
2022-09-20T18:34:26.795Z,14.50
2022-09-20T18:36:55.536Z,14.07
2022-09-20T18:39:31.021Z,14.27
2022-09-20T18:41:57.576Z,14.17
2022-09-20T18:44:24.239Z,14.26
2022-09-20T18:46:54.204Z,14.37
2022-09-20T18:49:21.657Z,14.40
2022-09-20T18:51:49.298Z,14.36
2022-09-20T18:54:16.746Z,14.24
2022-09-20T18:56:45.369Z,14.25
2022-09-20T18:59:25.387Z,13.92
2022-09-20T19:01:55.182Z,14.04
2022-09-20T19:04:43.891Z,14.07
2022-09-20T19:07:29.874Z,13.78
2022-09-20T19:10:08.856Z,13.68
2022-09-20T19:12:54.348Z,13.79
2022-09-20T19:18:35.678Z,13.87
2022-09-20T19:21:35.457Z,13.73
2022-09-20T19:24:21.724Z,13.74
2022-09-20T19:26:48.877Z,13.59
2022-09-20T19:29:33.786Z,13.60
2022-09-20T19:32:00.926Z,13.44
2022-09-20T19:34:35.292Z,13.09
2022-09-20T19:50:42.205Z,13.84
2022-09-20T19:53:09.736Z,13.85
2022-09-20T19:55:36.993Z,13.86
2022-09-20T20:00:39.536Z,13.80
2022-09-20T20:03:06.699Z,13.78
2022-09-20T20:05:33.669Z,13.73
2022-09-20T20:08:12.649Z,13.76
2022-09-20T20:10:52.371Z,13.78
2022-09-20T20:14:00.384Z,13.75
2022-09-20T20:16:59.873Z,13.75
2022-09-20T20:19:44.368Z,13.68
2022-09-20T20:22:45.837Z,13.67
2022-09-20T20:29:26.385Z,13.66
2022-09-20T20:31:52.975Z,13.51
2022-09-20T20:34:20.621Z,13.54
2022-09-20T20:36:47.383Z,13.51
2022-09-20T20:39:14.930Z,13.12
2022-09-20T20:41:41.768Z,13.11
2022-09-20T20:44:08.362Z,13.03
2022-09-20T20:46:36.112Z,12.94
2022-09-20T20:49:03.692Z,12.93
2022-09-20T20:51:32.927Z,13.10
2022-09-20T20:53:59.901Z,13.04
2022-09-20T20:56:29.779Z,13.08
2022-09-20T21:32:36.906Z,13.09
2022-09-20T21:35:03.648Z,13.01
2022-09-20T21:37:30.551Z,13.04
2022-09-20T21:39:57.104Z,13.10
2022-09-20T21:42:25.478Z,13.05
2022-09-20T21:44:53.015Z,13.07
2022-09-20T21:47:20.638Z,13.03
2022-09-20T22:18:37.642Z,12.86
2022-09-20T22:21:06.824Z,12.60
2022-09-20T22:23:46.976Z,12.69
2022-09-20T22:26:16.815Z,12.76
2022-09-20T22:28:43.849Z,12.61
2022-09-20T22:31:16.105Z,12.71
2022-09-20T22:33:48.280Z,12.61
2022-09-20T22:36:16.737Z,12.72
2022-09-20T22:42:46.327Z,12.55
2022-09-20T22:45:12.953Z,12.51
2022-09-20T22:47:39.478Z,12.59
2022-09-20T22:50:06.998Z,12.50
2022-09-20T22:52:33.592Z,12.58
2022-09-20T22:55:00.120Z,12.60
2022-09-20T22:57:51.859Z,12.61
2022-09-20T23:00:18.394Z,12.66
2022-09-20T23:02:44.954Z,12.60
2022-09-20T23:05:11.493Z,12.54
2022-09-20T23:07:38.041Z,12.46
2022-09-20T23:10:05.537Z,12.53
2022-09-20T23:13:03.364Z,12.36
2022-09-20T23:19:12.033Z,12.39
2022-09-20T23:21:40.234Z,12.36
2022-09-20T23:24:09.766Z,12.39
2022-09-20T23:26:37.916Z,12.32
2022-09-20T23:29:10.994Z,12.38
2022-09-20T23:31:59.461Z,12.39
2022-09-20T23:34:25.971Z,12.39
2022-09-20T23:36:52.892Z,12.28
2022-09-20T23:39:19.438Z,12.32
2022-09-20T23:41:50.603Z,12.40
2022-09-20T23:44:17.922Z,12.25
2022-09-20T23:46:44.523Z,12.13
2022-09-20T23:53:03.033Z,12.10
2022-09-20T23:55:29.737Z,11.85
2022-09-20T23:57:59.629Z,11.86
